Time;durP1;ratioP1;P1;durP2;ratioP2;P2;SDS_P1;SDS_P2;PMS_P1;PMS_P2;Temp;Humidity;BMP_temperature;BMP_pressure;BME280_temperature;BME280_humidity;BME280_pressure;Samples;Min_cycle;Max_cycle;Signal;HPM_P1;HPM_P2
2021/08/28 00:02:02;;;;;;;13.25;7.30;;;;;;;13.18;100.00;97568.16;5041843;28;20049;-79
2021/08/28 00:04:30;;;;;;;10.95;7.38;;;;;;;13.32;100.00;97574.88;5040631;28;20249;-80
2021/08/28 00:06:57;;;;;;;6.93;5.00;;;;;;;13.22;100.00;97569.88;5039709;28;20095;-80
2021/08/28 00:09:23;;;;;;;8.65;6.03;;;;;;;13.25;100.00;97569.19;5039536;28;20045;-80
2021/08/28 00:11:50;;;;;;;8.55;5.82;;;;;;;13.27;100.00;97566.94;5023325;28;20053;-80
2021/08/28 00:14:17;;;;;;;7.60;5.53;;;;;;;13.24;100.00;97566.81;5023567;28;20081;-79
2021/08/28 00:16:44;;;;;;;9.90;5.97;;;;;;;13.15;100.00;97564.19;5041167;28;20493;-81
2021/08/28 00:19:10;;;;;;;9.98;7.13;;;;;;;13.15;100.00;97566.09;5041917;28;20046;-80
2021/08/28 00:21:37;;;;;;;11.98;8.80;;;;;;;13.25;100.00;97574.63;5040443;28;20697;-80
2021/08/28 00:24:04;;;;;;;12.60;9.18;;;;;;;13.33;100.00;97575.69;5039688;28;20052;-79
2021/08/28 00:26:31;;;;;;;13.85;10.60;;;;;;;13.43;100.00;97570.63;5038621;28;20068;-82
2021/08/28 00:28:58;;;;;;;16.15;11.55;;;;;;;13.50;100.00;97567.34;5019989;28;20046;-80
2021/08/28 00:31:25;;;;;;;19.77;14.27;;;;;;;13.49;100.00;97573.94;5036731;28;20469;-79
2021/08/28 00:33:51;;;;;;;20.75;13.73;;;;;;;13.37;100.00;97565.75;5039852;28;20424;-80
2021/08/28 00:36:18;;;;;;;18.48;13.60;;;;;;;13.39;100.00;97567.00;5039983;28;20047;-80
2021/08/28 00:38:47;;;;;;;17.88;14.07;;;;;;;13.30;100.00;97566.28;5041014;28;20045;-79
2021/08/28 00:41:14;;;;;;;20.70;14.68;;;;;;;13.33;100.00;97560.19;5022653;28;20053;-80
2021/08/28 00:43:41;;;;;;;22.25;15.52;;;;;;;13.40;100.00;97570.50;5023058;28;20053;-79
2021/08/28 00:46:08;;;;;;;24.38;16.85;;;;;;;13.29;100.00;97566.63;5040509;28;20513;-80
2021/08/28 00:48:35;;;;;;;25.13;18.02;;;;;;;13.23;100.00;97571.47;5040155;28;20052;-79
2021/08/28 00:51:02;;;;;;;26.17;18.38;;;;;;;13.37;100.00;97566.53;5040623;28;20053;-79
2021/08/28 00:53:32;;;;;;;28.90;18.10;;;;;;;13.32;100.00;97576.81;5021179;28;20133;-79
2021/08/28 00:55:58;;;;;;;28.27;18.73;;;;;;;13.39;100.00;97577.88;5021432;28;20520;-79
2021/08/28 00:58:25;;;;;;;31.30;18.27;;;;;;;13.28;100.00;97573.97;5038486;28;20054;-80
2021/08/28 01:00:55;;;;;;;29.08;19.05;;;;;;;13.25;100.00;97573.84;5038932;28;20041;-79
2021/08/28 01:03:27;;;;;;;26.50;18.55;;;;;;;13.29;100.00;97586.41;5039370;28;20048;-80
2021/08/28 01:06:15;;;;;;;28.02;19.00;;;;;;;13.39;100.00;97588.75;5036642;28;20038;-79
2021/08/28 01:08:58;;;;;;;31.08;18.65;;;;;;;13.46;100.00;97590.94;5036738;28;20429;-79
2021/08/28 01:11:24;;;;;;;23.10;15.70;;;;;;;13.36;100.00;97586.69;5037385;28;20067;-78
2021/08/28 01:13:59;;;;;;;24.92;17.35;;;;;;;13.32;100.00;97583.03;5019885;28;20033;-80
2021/08/28 01:16:27;;;;;;;28.77;17.20;;;;;;;13.40;100.00;97579.44;5037605;28;20061;-80
2021/08/28 01:18:58;;;;;;;24.77;17.30;;;;;;;13.40;100.00;97584.09;5036359;28;20498;-80
2021/08/28 01:21:39;;;;;;;23.45;16.67;;;;;;;13.32;100.00;97588.47;5039033;28;20052;-79
2021/08/28 01:24:07;;;;;;;26.65;17.77;;;;;;;13.36;100.00;97586.69;5037636;28;20043;-79
2021/08/28 01:27:01;;;;;;;24.25;16.60;;;;;;;13.42;100.00;97581.84;5037953;28;20603;-80
2021/08/28 01:29:32;;;;;;;22.92;16.00;;;;;;;13.44;100.00;97572.22;5036639;28;20053;-80
2021/08/28 01:32:00;;;;;;;24.15;16.77;;;;;;;13.40;100.00;97574.00;5038027;28;20120;-79
2021/08/28 01:34:28;;;;;;;26.95;16.13;;;;;;;13.40;100.00;97578.66;5036114;28;20516;-80
2021/08/28 01:36:56;;;;;;;24.05;16.13;;;;;;;13.44;100.00;97582.31;4997782;28;20091;-78
2021/08/28 01:39:23;;;;;;;23.40;15.30;;;;;;;13.42;100.00;97585.34;5032639;28;20410;-80
2021/08/28 01:42:01;;;;;;;19.60;14.63;;;;;;;13.31;100.00;97578.75;5032620;28;20046;-79
2021/08/28 01:44:29;;;;;;;19.30;14.13;;;;;;;13.29;100.00;97586.41;5032120;28;20472;-80
2021/08/28 01:46:56;;;;;;;20.88;14.93;;;;;;;13.19;100.00;97575.97;5032146;28;20049;-80
2021/08/28 01:49:23;;;;;;;18.98;13.60;;;;;;;13.31;100.00;97589.63;5032177;28;20531;-79
2021/08/28 01:51:50;;;;;;;17.85;13.25;;;;;;;13.34;100.00;97586.25;5033259;28;20045;-80
2021/08/28 01:54:17;;;;;;;21.55;13.55;;;;;;;13.30;100.00;97585.31;5015563;28;20216;-80
2021/08/28 01:56:46;;;;;;;22.80;13.73;;;;;;;13.40;100.00;97581.38;5033097;28;20049;-80
2021/08/28 01:59:13;;;;;;;18.25;12.93;;;;;;;13.34;100.00;97588.97;5034701;28;20386;-79
2021/08/28 02:01:40;;;;;;;20.90;13.90;;;;;;;13.26;100.00;97589.84;5034707;28;20072;-80
2021/08/28 02:04:07;;;;;;;18.70;13.60;;;;;;;13.29;100.00;97591.84;5035543;28;20046;-79
2021/08/28 02:06:37;;;;;;;25.58;14.52;;;;;;;13.31;100.00;97596.97;5033683;28;20041;-79
2021/08/28 02:09:16;;;;;;;17.15;13.95;;;;;;;13.35;100.00;97592.47;5034975;28;20046;-79
2021/08/28 02:11:55;;;;;;;22.08;15.18;;;;;;;13.29;100.00;97593.81;5035854;28;20046;-80
2021/08/28 02:14:29;;;;;;;20.50;15.13;;;;;;;13.33;100.00;97598.25;5035367;28;20101;-78
2021/08/28 02:16:56;;;;;;;21.45;15.40;;;;;;;13.38;100.00;97591.78;5036585;28;20042;-80
2021/08/28 02:19:27;;;;;;;19.80;15.48;;;;;;;13.36;100.00;97597.59;5036893;28;20390;-80
2021/08/28 02:21:58;;;;;;;25.90;17.13;;;;;;;13.46;100.00;97588.19;5035740;28;20052;-81
2021/08/28 02:24:31;;;;;;;22.98;16.98;;;;;;;13.49;100.00;97601.94;5040627;28;20041;-80
2021/08/28 02:27:07;;;;;;;24.33;16.23;;;;;;;13.48;100.00;97600.34;5039389;28;20040;-80
2021/08/28 02:29:37;;;;;;;25.95;16.67;;;;;;;13.45;100.00;97595.56;5022492;28;20049;-80
2021/08/28 02:32:05;;;;;;;27.17;18.40;;;;;;;13.33;100.00;97590.09;5042182;28;20045;-80
2021/08/28 02:34:34;;;;;;;25.50;18.30;;;;;;;13.37;100.00;97580.13;5022190;28;20041;-80
2021/08/28 02:37:02;;;;;;;30.80;18.42;;;;;;;13.44;100.00;97599.44;5021753;28;20053;-81
2021/08/28 02:39:29;;;;;;;25.90;17.88;;;;;;;13.41;100.00;97583.78;5001878;28;20046;-80
2021/08/28 02:41:58;;;;;;;28.08;18.77;;;;;;;13.41;100.00;97591.13;5019365;28;20041;-81
2021/08/28 02:44:25;;;;;;;29.98;18.52;;;;;;;13.51;100.00;97594.22;5017957;28;20048;-80
2021/08/28 02:46:54;;;;;;;26.05;18.40;;;;;;;13.56;100.00;97590.50;5001186;28;20038;-79
2021/08/28 02:49:22;;;;;;;31.08;19.27;;;;;;;13.46;100.00;97580.03;5017393;28;20069;-78
2021/08/28 02:51:50;;;;;;;29.77;19.83;;;;;;;13.44;100.00;97580.41;5017916;28;20379;-78
2021/08/28 02:54:18;;;;;;;31.25;20.55;;;;;;;13.35;100.00;97587.03;5017874;28;20057;-80
2021/08/28 02:56:49;;;;;;;37.75;21.50;;;;;;;13.23;100.00;97587.78;5018932;28;20037;-80
2021/08/28 02:59:17;;;;;;;31.90;21.27;;;;;;;13.29;100.00;97581.00;5018756;28;20054;-81
2021/08/28 03:01:44;;;;;;;34.55;22.42;;;;;;;13.31;100.00;97592.34;5019504;28;20053;-81
2021/08/28 03:04:16;;;;;;;35.42;22.40;;;;;;;13.34;100.00;97594.41;5002208;28;20110;-81
2021/08/28 03:06:45;;;;;;;32.80;21.75;;;;;;;13.31;100.00;97596.97;5021020;28;20046;-80
2021/08/28 03:09:12;;;;;;;31.52;21.23;;;;;;;13.22;100.00;97591.59;5006211;28;20045;-81
2021/08/28 03:11:39;;;;;;;32.15;20.85;;;;;;;13.30;100.00;97590.75;5022962;28;20045;-79
2021/08/28 03:14:06;;;;;;;30.48;20.48;;;;;;;13.19;100.00;97591.50;5022116;28;20391;-80
2021/08/28 03:16:34;;;;;;;36.92;21.92;;;;;;;13.23;100.00;97603.28;5022141;28;20045;-80
2021/08/28 03:19:03;;;;;;;33.20;21.83;;;;;;;13.19;100.00;97599.66;5021762;28;20097;-81
2021/08/28 03:21:31;;;;;;;37.13;22.00;;;;;;;13.36;100.00;97591.34;5004939;28;20088;-82
2021/08/28 03:24:00;;;;;;;34.72;22.75;;;;;;;13.28;100.00;97592.22;5023745;28;20087;-80
2021/08/28 03:26:45;;;;;;;33.83;21.60;;;;;;;13.37;100.00;97599.16;5020219;28;20038;-81
2021/08/28 03:29:13;;;;;;;31.10;20.90;;;;;;;13.24;100.00;97600.22;5016467;28;20052;-80
2021/08/28 03:31:41;;;;;;;38.05;21.48;;;;;;;13.40;100.00;97597.69;5019665;28;20079;-79
2021/08/28 03:34:08;;;;;;;36.03;22.23;;;;;;;13.45;100.00;97594.75;5020312;28;20157;-79
2021/08/28 03:36:36;;;;;;;34.40;22.48;;;;;;;13.44;100.00;97594.00;5019743;28;20046;-79
2021/08/28 03:39:03;;;;;;;36.95;22.55;;;;;;;13.38;100.00;97586.34;5004739;28;20042;-80
2021/08/28 03:41:30;;;;;;;41.10;22.52;;;;;;;13.36;100.00;97586.69;5007384;28;20050;-81
2021/08/28 03:43:56;;;;;;;40.67;24.52;;;;;;;13.33;100.00;97598.25;5036912;28;20049;-79
2021/08/28 03:46:24;;;;;;;41.03;22.85;;;;;;;13.38;100.00;97584.44;5036338;28;20415;-79
2021/08/28 03:48:51;;;;;;;38.17;22.20;;;;;;;13.47;100.00;97584.38;5037151;28;20036;-78
2021/08/28 03:51:17;;;;;;;45.63;22.92;;;;;;;13.26;100.00;97589.03;5036378;28;20026;-79
2021/08/28 03:53:44;;;;;;;38.50;23.83;;;;;;;13.21;100.00;97594.66;5020141;28;20030;-80
2021/08/28 03:56:10;;;;;;;39.88;24.13;;;;;;;13.48;100.00;97589.47;5020326;28;20413;-80
2021/08/28 03:58:38;;;;;;;39.35;23.67;;;;;;;13.26;100.00;97589.03;5020179;28;20050;-80
2021/08/28 04:01:04;;;;;;;43.80;24.15;;;;;;;13.25;100.00;97590.16;5002280;28;20077;-80
2021/08/28 04:03:31;;;;;;;39.65;23.10;;;;;;;13.17;100.00;97591.81;5002533;28;20052;-78
2021/08/28 04:05:58;;;;;;;37.75;21.75;;;;;;;13.24;100.00;97586.63;5019552;28;20421;-80
2021/08/28 04:08:25;;;;;;;39.15;22.50;;;;;;;13.14;100.00;97587.03;5003329;28;20049;-80
2021/08/28 04:10:51;;;;;;;41.30;22.50;;;;;;;13.12;100.00;97592.00;5020285;28;20045;-79
2021/08/28 04:13:18;;;;;;;41.97;22.70;;;;;;;13.10;100.00;97595.06;5004145;28;20061;-78
2021/08/28 04:15:44;;;;;;;40.67;21.63;;;;;;;13.16;100.00;97582.09;5022113;28;20052;-78
2021/08/28 04:18:11;;;;;;;37.70;22.08;;;;;;;13.21;100.00;97595.47;5006064;28;20530;-78
2021/08/28 04:20:39;;;;;;;37.13;21.83;;;;;;;13.18;100.00;97593.41;5023128;28;20281;-79
2021/08/28 04:23:05;;;;;;;34.95;20.05;;;;;;;13.19;100.00;97603.16;5005546;28;20050;-79
2021/08/28 04:25:32;;;;;;;33.20;19.77;;;;;;;13.18;100.00;97593.41;5003894;28;20057;-78
2021/08/28 04:27:59;;;;;;;38.80;20.80;;;;;;;13.11;100.00;97596.66;5020595;28;20038;-78
2021/08/28 04:30:28;;;;;;;36.13;21.17;;;;;;;13.11;100.00;97604.81;5022251;28;20088;-80
2021/08/28 04:32:55;;;;;;;37.42;22.00;;;;;;;13.22;100.00;97593.53;5022107;28;20042;-80
2021/08/28 04:35:22;;;;;;;42.78;22.75;;;;;;;13.15;100.00;97607.66;5022192;28;20056;-79
2021/08/28 04:37:48;;;;;;;45.20;23.85;;;;;;;13.21;100.00;97602.81;5022530;28;20045;-80
2021/08/28 04:40:15;;;;;;;43.92;24.13;;;;;;;13.26;100.00;97600.72;5022244;28;20061;-79
2021/08/28 04:42:43;;;;;;;45.00;24.58;;;;;;;13.28;100.00;97603.88;5021810;28;20046;-78
2021/08/28 04:45:10;;;;;;;59.88;26.85;;;;;;;13.08;100.00;97593.81;5021667;28;20046;-78
2021/08/28 04:47:36;;;;;;;58.53;28.30;;;;;;;13.09;100.00;97588.03;5004230;28;20046;-80
2021/08/28 04:50:03;;;;;;;56.60;26.60;;;;;;;13.13;100.00;97590.09;5032109;28;20041;-80
2021/08/28 04:52:30;;;;;;;58.35;27.50;;;;;;;13.16;100.00;97598.41;5041826;28;20095;-80
2021/08/28 04:54:56;;;;;;;53.55;27.38;;;;;;;13.19;100.00;97597.72;5038865;28;20045;-79
2021/08/28 04:57:24;;;;;;;58.80;28.83;;;;;;;13.15;100.00;97593.28;5039489;28;20069;-79
2021/08/28 04:59:51;;;;;;;60.72;30.75;;;;;;;13.11;100.00;97606.72;5043010;28;20053;-79
2021/08/28 05:02:17;;;;;;;62.50;30.25;;;;;;;13.23;100.00;97609.53;5021915;28;20046;-79
2021/08/28 05:04:44;;;;;;;65.53;31.05;;;;;;;13.15;100.00;97601.44;5003787;28;20038;-78
2021/08/28 05:07:10;;;;;;;60.63;28.60;;;;;;;13.24;100.00;97605.66;5019303;28;20052;-79
2021/08/28 05:09:37;;;;;;;54.80;28.10;;;;;;;13.22;100.00;97602.47;5020945;28;20057;-78
2021/08/28 05:12:10;;;;;;;59.53;27.85;;;;;;;13.16;100.00;97614.72;5002033;28;20133;-79
2021/08/28 05:14:38;;;;;;;54.92;27.50;;;;;;;13.23;100.00;97608.72;5018843;28;20417;-79
2021/08/28 05:17:07;;;;;;;45.60;25.00;;;;;;;13.15;100.00;97612.31;5018508;28;20506;-79
2021/08/28 05:19:34;;;;;;;54.65;25.80;;;;;;;13.33;100.00;97620.00;5015246;28;20038;-79
2021/08/28 05:22:01;;;;;;;49.42;23.25;;;;;;;13.21;100.00;97608.25;5021512;28;20052;-78
2021/08/28 05:24:29;;;;;;;36.17;19.65;;;;;;;13.18;100.00;97620.59;5031300;28;20052;-78
2021/08/28 05:26:55;;;;;;;30.70;17.85;;;;;;;13.17;100.00;97619.00;5041039;23;20045;-78
2021/08/28 05:29:22;;;;;;;27.10;15.88;;;;;;;13.11;100.00;97617.59;5007729;28;20099;-79
2021/08/28 05:31:48;;;;;;;27.35;14.07;;;;;;;13.17;100.00;97621.72;4991057;28;20046;-81
2021/08/28 05:34:15;;;;;;;22.77;13.80;;;;;;;13.21;100.00;97614.50;5007524;28;20046;-81
2021/08/28 05:36:45;;;;;;;17.55;12.07;;;;;;;13.20;100.00;97621.06;4972045;28;20056;-82
2021/08/28 05:39:12;;;;;;;13.52;9.52;;;;;;;13.13;100.00;97620.00;5024285;23;20539;-78
2021/08/28 05:41:39;;;;;;;9.90;6.95;;;;;;;13.09;100.00;97620.66;5013823;28;20433;-77
2021/08/28 05:44:05;;;;;;;8.60;6.15;;;;;;;12.96;100.00;97610.00;5011627;28;20436;-77
2021/08/28 05:46:32;;;;;;;8.95;6.43;;;;;;;13.01;100.00;97615.25;5018125;28;20045;-78
2021/08/28 05:48:58;;;;;;;8.80;6.72;;;;;;;13.21;100.00;97613.69;5033205;28;20053;-78
2021/08/28 05:51:25;;;;;;;8.50;6.07;;;;;;;13.16;100.00;97622.06;5032831;28;20041;-77
2021/08/28 05:53:52;;;;;;;8.18;5.40;;;;;;;13.19;100.00;97616.72;5027081;28;20110;-78
2021/08/28 05:56:28;;;;;;;4.72;3.45;;;;;;;13.18;100.00;97622.50;4998541;28;20152;-77
2021/08/28 05:58:57;;;;;;;3.33;2.40;;;;;;;13.14;100.00;97633.25;5003296;28;20293;-77
2021/08/28 06:01:24;;;;;;;3.17;1.70;;;;;;;13.01;100.00;97632.34;5022429;28;20056;-78
2021/08/28 06:03:51;;;;;;;4.10;1.88;;;;;;;12.74;100.00;97624.69;5022793;28;20064;-78
2021/08/28 06:06:17;;;;;;;2.42;1.08;;;;;;;12.50;100.00;97647.03;5020907;28;20113;-76
2021/08/28 06:08:44;;;;;;;3.13;1.20;;;;;;;12.30;100.00;97650.47;5021224;28;20044;-79
2021/08/28 06:11:11;;;;;;;2.58;1.20;;;;;;;12.10;100.00;97629.47;5020217;28;20056;-77
2021/08/28 06:13:38;;;;;;;2.10;1.00;;;;;;;11.90;100.00;97643.72;5006530;28;20065;-78
2021/08/28 06:16:05;;;;;;;4.65;1.23;;;;;;;11.86;100.00;97642.78;5026245;28;20088;-78
2021/08/28 06:18:32;;;;;;;2.35;1.17;;;;;;;11.91;100.00;97639.91;5036984;28;20436;-78
2021/08/28 06:21:01;;;;;;;2.15;1.27;;;;;;;11.80;100.00;97628.59;5035606;28;20049;-78
2021/08/28 06:23:28;;;;;;;2.20;1.20;;;;;;;11.97;100.00;97651.38;5028925;28;20045;-77
2021/08/28 06:25:55;;;;;;;2.38;1.35;;;;;;;11.78;100.00;97644.41;5018396;28;20068;-78
2021/08/28 06:28:22;;;;;;;2.35;1.35;;;;;;;11.78;100.00;97649.03;5007646;28;20101;-78
2021/08/28 06:30:48;;;;;;;2.90;1.30;;;;;;;11.69;100.00;97642.84;5017799;28;20060;-78
2021/08/28 06:33:15;;;;;;;2.90;1.80;;;;;;;11.76;100.00;97643.13;5015170;28;20034;-77
2021/08/28 06:35:42;;;;;;;6.68;2.47;;;;;;;11.74;100.00;97637.22;5015433;28;20060;-78
2021/08/28 06:38:09;;;;;;;7.13;2.33;;;;;;;11.85;100.00;97633.84;4997639;28;20054;-77
2021/08/28 06:40:36;;;;;;;3.00;1.60;;;;;;;11.95;100.00;97642.78;4995215;28;20525;-78
2021/08/28 06:43:02;;;;;;;3.60;2.45;;;;;;;12.28;100.00;97641.88;4978364;28;20056;-77
2021/08/28 06:45:29;;;;;;;2.13;1.80;;;;;;;12.72;100.00;97637.03;4992736;28;20545;-77
2021/08/28 06:47:55;;;;;;;2.10;1.83;;;;;;;13.08;100.00;97634.59;5011720;28;20046;-78
2021/08/28 06:50:22;;;;;;;2.53;1.30;;;;;;;13.31;100.00;97637.75;5015758;28;20053;-77
2021/08/28 06:52:48;;;;;;;1.88;1.38;;;;;;;13.59;100.00;97633.34;4996543;28;20054;-77
2021/08/28 06:55:15;;;;;;;1.92;1.50;;;;;;;13.78;100.00;97636.38;4997972;28;20054;-77
2021/08/28 06:57:41;;;;;;;2.50;1.50;;;;;;;14.05;100.00;97630.31;5011442;28;20057;-77
2021/08/28 07:00:08;;;;;;;2.58;1.30;;;;;;;14.26;100.00;97643.88;5013957;28;20414;-77
2021/08/28 07:02:38;;;;;;;2.63;1.42;;;;;;;14.08;100.00;97631.59;5021943;28;20061;-78
2021/08/28 07:05:05;;;;;;;2.20;1.60;;;;;;;14.08;100.00;97631.59;5017685;28;20099;-78
2021/08/28 07:07:32;;;;;;;1.23;0.85;;;;;;;14.17;100.00;97637.72;4985751;28;20418;-79
2021/08/28 07:09:59;;;;;;;1.88;1.00;;;;;;;14.41;100.00;97642.44;5003237;28;20057;-78
2021/08/28 07:12:26;;;;;;;1.55;1.02;;;;;;;14.47;100.00;97635.63;5020060;28;20453;-78
2021/08/28 07:14:56;;;;;;;2.33;1.30;;;;;;;14.02;100.00;97636.44;5018882;28;20117;-79
2021/08/28 07:17:22;;;;;;;2.22;1.00;;;;;;;14.20;100.00;97626.16;5022860;28;20033;-79
2021/08/28 07:19:49;;;;;;;1.73;1.33;;;;;;;14.32;100.00;97639.84;5023903;28;20061;-78
2021/08/28 07:22:16;;;;;;;1.58;1.02;;;;;;;14.25;100.00;97634.09;5015854;28;20042;-79
2021/08/28 07:24:42;;;;;;;1.10;0.52;;;;;;;14.13;100.00;97645.78;5019227;28;20041;-78
2021/08/28 07:27:09;;;;;;;1.58;0.63;;;;;;;14.04;100.00;97647.00;5014543;28;20050;-78
2021/08/28 07:29:36;;;;;;;2.83;0.50;;;;;;;14.14;100.00;97654.75;4998464;28;20084;-79
2021/08/28 07:32:03;;;;;;;1.60;0.60;;;;;;;14.26;100.00;97644.66;5015105;28;20093;-78
2021/08/28 07:34:35;;;;;;;3.00;0.70;;;;;;;14.35;100.00;97653.53;5015516;28;20053;-78
2021/08/28 07:37:03;;;;;;;4.13;0.65;;;;;;;14.36;100.00;97646.19;5020442;28;20052;-78
2021/08/28 07:39:30;;;;;;;1.38;0.65;;;;;;;14.07;100.00;97651.75;5017204;28;20042;-78
2021/08/28 07:41:57;;;;;;;2.15;1.00;;;;;;;13.97;100.00;97655.72;5014828;28;20050;-78
2021/08/28 07:44:23;;;;;;;3.03;1.50;;;;;;;13.88;100.00;97654.22;5014851;28;20042;-77
2021/08/28 07:46:50;;;;;;;2.00;0.82;;;;;;;13.92;100.00;97653.19;5013513;28;20045;-79
2021/08/28 07:49:17;;;;;;;2.05;0.95;;;;;;;13.97;100.00;97657.63;4993829;28;20046;-77
2021/08/28 07:51:44;;;;;;;1.38;0.70;;;;;;;13.64;100.00;97660.34;4997127;28;20049;-78
2021/08/28 07:54:10;;;;;;;1.30;0.68;;;;;;;13.78;100.00;97660.09;4993924;28;20491;-77
2021/08/28 07:56:37;;;;;;;1.25;0.80;;;;;;;13.64;100.00;97650.28;4976861;28;20046;-79
2021/08/28 07:59:17;;;;;;;1.90;0.80;;;;;;;13.78;100.00;97657.34;4994416;28;20073;-79
2021/08/28 08:01:47;;;;;;;0.93;0.70;;;;;;;13.50;100.00;97646.22;5000686;28;20056;-78
2021/08/28 08:04:15;;;;;;;2.60;0.60;;;;;;;13.78;100.00;97649.19;5014034;28;20042;-78
2021/08/28 08:06:41;;;;;;;1.40;0.70;;;;;;;14.06;100.00;97650.19;5013989;28;20063;-78
2021/08/28 08:09:08;;;;;;;0.82;0.60;;;;;;;14.39;100.00;97650.16;5011778;28;20149;-79
2021/08/28 08:11:37;;;;;;;1.13;0.57;;;;;;;14.81;100.00;97662.44;5012897;28;20123;-79
2021/08/28 08:14:03;;;;;;;0.95;0.65;;;;;;;15.09;100.00;97668.78;5012802;28;20049;-78
2021/08/28 08:16:31;;;;;;;1.75;0.52;;;;;;;15.31;100.00;97659.28;5012336;28;20042;-79
2021/08/28 08:18:57;;;;;;;0.93;0.50;;;;;;;15.58;100.00;97653.13;5011603;28;20512;-78
2021/08/28 08:21:24;;;;;;;1.40;0.82;;;;;;;15.72;100.00;97663.66;5012010;28;20501;-78
2021/08/28 08:23:51;;;;;;;0.88;0.60;;;;;;;15.36;100.00;97659.84;5013481;28;20125;-79
2021/08/28 08:26:18;;;;;;;0.60;0.50;;;;;;;14.95;100.00;97660.94;5014105;28;20052;-78
2021/08/28 08:28:45;;;;;;;0.57;0.40;;;;;;;15.07;100.00;97667.53;5013165;28;20545;-79
2021/08/28 08:31:12;;;;;;;0.75;0.45;;;;;;;15.45;100.00;97668.72;5012325;28;20099;-79
2021/08/28 08:33:40;;;;;;;0.98;0.75;;;;;;;15.28;100.00;97666.22;5012872;28;20494;-79
2021/08/28 08:36:07;;;;;;;2.35;0.90;;;;;;;15.19;100.00;97681.94;5012092;28;20053;-79
2021/08/28 08:38:33;;;;;;;0.80;0.70;;;;;;;15.01;100.00;97680.59;5013621;28;20038;-79
2021/08/28 08:41:00;;;;;;;0.90;0.82;;;;;;;14.96;100.00;97681.63;5011388;28;20573;-79
2021/08/28 08:43:27;;;;;;;2.45;0.90;;;;;;;15.24;100.00;97689.09;5011205;28;20046;-78
2021/08/28 08:45:55;;;;;;;1.13;1.00;;;;;;;15.31;100.00;97676.44;5011771;28;20046;-79
2021/08/28 08:48:22;;;;;;;1.33;0.80;;;;;;;15.40;100.00;97679.06;5013129;28;20045;-80
2021/08/28 08:50:50;;;;;;;0.95;0.80;;;;;;;15.64;100.00;97686.41;5012781;28;20042;-78
2021/08/28 08:53:20;;;;;;;0.70;0.60;;;;;;;15.80;100.00;97676.31;4993765;28;20057;-80
2021/08/28 08:55:49;;;;;;;0.88;0.70;;;;;;;16.09;100.00;97682.25;4982018;28;20090;-80
2021/08/28 08:58:17;;;;;;;0.70;0.70;;;;;;;16.22;100.00;97682.97;5004440;28;20048;-79
2021/08/28 09:00:43;;;;;;;2.13;0.60;;;;;;;16.27;100.00;97684.63;5014409;28;20145;-79
2021/08/28 09:03:11;;;;;;;0.50;0.50;;;;;;;16.17;100.00;97686.75;4995355;28;20584;-79
2021/08/28 09:05:38;;;;;;;3.63;0.80;;;;;;;16.15;100.00;97682.78;5012698;28;20064;-78
2021/08/28 09:08:06;;;;;;;1.13;0.80;;;;;;;16.16;100.00;97690.63;5012765;28;20046;-78
2021/08/28 09:10:32;;;;;;;1.98;0.88;;;;;;;15.76;100.00;97692.63;5013729;28;20564;-80
2021/08/28 09:13:22;;;;;;;1.00;0.80;;;;;;;15.53;100.00;97697.03;4995728;28;20038;-79
2021/08/28 09:15:55;;;;;;;1.25;1.15;;;;;;;15.69;100.00;97708.78;5014825;28;20049;-79
2021/08/28 09:18:48;;;;;;;1.00;0.90;;;;;;;16.01;100.00;97699.56;4996822;28;20100;-80
2021/08/28 09:21:14;;;;;;;;;;;;;;;16.02;100.00;97711.28;4996419;28;20049;-81
2021/08/28 09:23:41;;;;;;;1.00;0.80;;;;;;;15.78;100.00;97703.19;5013617;28;19923;-79
2021/08/28 09:26:30;;;;;;;2.83;0.70;;;;;;;15.78;100.00;97705.91;5012704;28;20447;-79
2021/08/28 09:28:58;;;;;;;1.90;0.90;;;;;;;15.52;100.00;97706.34;4994428;28;20041;-79
2021/08/28 09:31:39;;;;;;;1.67;0.90;;;;;;;15.38;100.00;97705.91;5011634;28;20514;-78
2021/08/28 09:34:23;;;;;;;1.90;0.60;;;;;;;16.07;100.00;97684.53;4975299;28;20080;-78
2021/08/28 09:36:59;;;;;;;2.47;0.80;;;;;;;16.15;100.00;97694.50;4994743;28;20038;-79
2021/08/28 09:39:40;;;;;;;;;;;;;;;16.33;100.00;97697.72;4995819;28;20046;-79
2021/08/28 09:42:09;;;;;;;1.70;0.75;;;;;;;16.00;100.00;97697.19;5011893;28;19926;-79
2021/08/28 09:44:41;;;;;;;0.88;0.70;;;;;;;16.65;100.00;97695.81;5012373;28;20077;-78
2021/08/28 09:47:11;;;;;;;0.90;0.70;;;;;;;16.67;100.00;97685.34;5011594;28;20056;-78
2021/08/28 09:49:39;;;;;;;0.77;0.75;;;;;;;16.97;100.00;97688.38;5011853;28;20045;-79
2021/08/28 09:52:10;;;;;;;1.08;0.77;;;;;;;17.35;100.00;97700.22;4993900;28;20536;-78
2021/08/28 09:54:38;;;;;;;3.80;0.93;;;;;;;17.78;100.00;97687.50;5011660;28;20096;-79
2021/08/28 09:57:11;;;;;;;1.85;1.00;;;;;;;17.78;100.00;97692.97;5009537;28;20073;-79
2021/08/28 09:59:57;;;;;;;2.45;0.90;;;;;;;17.60;100.00;97691.81;4994977;28;20498;-79
2021/08/28 10:02:24;;;;;;;2.05;1.10;;;;;;;16.92;100.00;97694.13;4995547;28;20046;-78
2021/08/28 10:04:56;;;;;;;1.33;1.05;;;;;;;16.73;100.00;97697.56;5013503;28;20065;-79
2021/08/28 10:07:28;;;;;;;1.27;1.05;;;;;;;17.13;100.00;97700.91;5013540;28;20053;-80
2021/08/28 10:09:57;;;;;;;1.02;0.80;;;;;;;16.78;100.00;97705.50;4994847;28;20038;-77
2021/08/28 10:12:33;;;;;;;1.75;0.98;;;;;;;17.21;100.00;97696.38;4993365;28;20052;-79
2021/08/28 10:15:03;;;;;;;1.25;0.90;;;;;;;18.06;100.00;97690.78;5012149;28;20050;-77
2021/08/28 10:17:32;;;;;;;1.52;0.98;;;;;;;17.73;100.00;97696.00;5011688;28;20091;-79
2021/08/28 10:20:02;;;;;;;2.25;0.70;;;;;;;17.73;100.00;97698.72;5012735;28;20042;-79
2021/08/28 10:22:35;;;;;;;3.50;1.10;;;;;;;17.67;100.00;97700.97;4996049;28;20047;-78
2021/08/28 10:25:08;;;;;;;1.27;0.95;;;;;;;18.03;100.00;97700.53;5004106;28;20033;-79
2021/08/28 10:27:37;;;;;;;1.77;1.20;;;;;;;18.16;100.00;97701.16;4984503;28;20092;-79
2021/08/28 10:30:11;;;;;;;2.17;1.15;;;;;;;18.44;100.00;97704.44;5014833;28;20034;-80
2021/08/28 10:32:39;;;;;;;1.67;1.27;;;;;;;17.99;100.00;97704.34;5015227;28;20046;-80
2021/08/28 10:35:07;;;;;;;2.40;1.00;;;;;;;17.81;100.00;97706.72;5014163;28;20730;-81
2021/08/28 10:37:34;;;;;;;2.50;1.08;;;;;;;17.33;100.00;97705.28;5013993;28;20050;-79
2021/08/28 10:40:06;;;;;;;1.30;0.95;;;;;;;17.35;100.00;97705.69;5017634;28;20030;-80
2021/08/28 10:42:33;;;;;;;1.55;0.95;;;;;;;17.16;100.00;97700.16;4997434;28;20053;-79
2021/08/28 10:45:01;;;;;;;1.45;1.02;;;;;;;17.43;100.00;97699.25;5017785;28;20054;-78
2021/08/28 10:47:31;;;;;;;1.83;1.35;;;;;;;16.83;100.00;97700.56;4999497;28;20050;-78
2021/08/28 10:50:07;;;;;;;1.45;1.10;;;;;;;16.18;100.00;97701.22;5017992;28;20046;-80
2021/08/28 10:52:39;;;;;;;1.70;1.10;;;;;;;16.30;100.00;97711.25;5017012;28;20053;-79
2021/08/28 10:55:15;;;;;;;1.75;1.20;;;;;;;16.58;100.00;97703.84;5016180;28;20065;-79
2021/08/28 10:57:42;;;;;;;1.30;1.10;;;;;;;16.59;100.00;97710.91;5018384;28;20046;-79
2021/08/28 11:00:11;;;;;;;1.90;1.10;;;;;;;16.69;100.00;97713.91;5015623;28;20148;-78
2021/08/28 11:02:58;;;;;;;2.45;1.10;;;;;;;16.50;100.00;97696.56;4980923;28;20053;-79
2021/08/28 11:05:28;;;;;;;1.73;1.00;;;;;;;16.80;100.00;97705.97;4997071;28;20066;-78
2021/08/28 11:08:15;;;;;;;2.25;1.33;;;;;;;17.35;100.00;97708.44;4999759;28;20128;-80
2021/08/28 11:10:42;;;;;;;3.20;1.60;;;;;;;17.87;100.00;97709.97;5005623;28;20394;-80
2021/08/28 11:13:09;;;;;;;3.65;1.30;;;;;;;17.52;100.00;97706.47;5015595;28;20077;-80
2021/08/28 11:15:35;;;;;;;2.13;1.00;;;;;;;17.76;100.00;97714.41;5017011;28;20048;-80
2021/08/28 11:18:11;;;;;;;3.58;1.30;;;;;;;17.78;100.00;97715.66;5016498;28;20120;-80
2021/08/28 11:20:50;;;;;;;1.75;1.10;;;;;;;17.66;100.00;97720.47;4999124;28;20124;-79
2021/08/28 11:23:21;;;;;;;1.50;0.90;;;;;;;17.56;100.00;97721.84;5017715;28;20042;-79
2021/08/28 11:25:51;;;;;;;2.05;1.17;;;;;;;17.90;100.00;97706.50;5042182;23;20038;-81
2021/08/28 11:28:21;;;;;;;2.45;1.25;;;;;;;18.57;100.00;97716.84;5015642;28;20053;-79